Time;durP1;ratioP1;P1;durP2;ratioP2;P2;SDS_P1;SDS_P2;PMS_P1;PMS_P2;Temp;Humidity;BMP_temperature;BMP_pressure;BME280_temperature;BME280_humidity;BME280_pressure;Samples;Min_cycle;Max_cycle;Signal;HPM_P1;HPM_P2
2022/01/17 00:00:01;;;;;;;;;;;-0.30;87.00;;;;;;4965371;29;19911;-91
2022/01/17 00:02:28;;;;;;;;;;;-0.30;87.30;;;;;;4965650;29;19910;-92
2022/01/17 00:04:54;;;;;;;;;;;-0.30;88.40;;;;;;4964770;29;19982;-91
2022/01/17 00:07:19;;;;;;;;;;;-0.30;87.80;;;;;;4964259;29;19910;-92
2022/01/17 00:09:45;;;;;;;;;;;-0.30;87.80;;;;;;4963952;29;19910;-92
2022/01/17 00:12:11;;;;;;;;;;;-0.40;88.40;;;;;;4964178;29;19934;-92
2022/01/17 00:14:40;;;;;;;;;;;-0.40;88.50;;;;;;4967483;29;22813;-92
2022/01/17 00:17:23;;;;;;;;;;;-0.40;89.10;;;;;;4974729;29;19915;-91
2022/01/17 00:19:53;;;;;;;;;;;-0.40;89.20;;;;;;4968935;29;19961;-92
2022/01/17 00:22:20;;;;;;;;;;;-0.40;89.70;;;;;;4964326;29;19934;-91
2022/01/17 00:24:46;;;;;;;;;;;-0.40;90.30;;;;;;4962007;29;19997;-91
2022/01/17 00:27:12;;;;;;;;;;;-0.50;90.20;;;;;;4962777;29;19910;-91
2022/01/17 00:29:38;;;;;;;;;;;-0.50;89.90;;;;;;4962288;29;19917;-92
2022/01/17 00:32:04;;;;;;;;;;;-0.50;90.20;;;;;;4961374;29;19948;-92
2022/01/17 00:34:30;;;;;;;;;;;-0.50;90.30;;;;;;4962512;29;19918;-92
2022/01/17 00:36:55;;;;;;;;;;;-0.50;90.70;;;;;;4962868;29;19910;-92
2022/01/17 00:39:21;;;;;;;;;;;-0.50;90.30;;;;;;4961773;28;19911;-92
2022/01/17 00:41:47;;;;;;;;;;;-0.50;90.40;;;;;;4961542;28;19910;-91
2022/01/17 00:44:15;;;;;;;;;;;-0.50;90.70;;;;;;4961314;29;20263;-91
2022/01/17 00:46:41;;;;;;;;;;;-0.50;90.40;;;;;;4977328;28;19917;-92
2022/01/17 00:49:07;;;;;;;;;;;-0.60;90.80;;;;;;4962780;29;19917;-91
2022/01/17 00:51:32;;;;;;;;;;;-0.60;91.00;;;;;;4964232;29;19953;-91
2022/01/17 00:53:58;;;;;;;;;;;-0.60;91.20;;;;;;4962582;29;20036;-91
2022/01/17 00:56:24;;;;;;;;;;;-0.60;91.20;;;;;;4947270;29;20013;-91
2022/01/17 00:58:50;;;;;;;;;;;-0.60;91.10;;;;;;4965147;29;19921;-91
2022/01/17 01:01:16;;;;;;;;;;;-0.60;91.50;;;;;;4964482;29;19910;-91
2022/01/17 01:03:42;;;;;;;;;;;-0.60;91.50;;;;;;4965458;29;19938;-91
2022/01/17 01:06:08;;;;;;;;;;;-0.60;91.40;;;;;;4963705;29;20005;-91
2022/01/17 01:08:33;;;;;;;;;;;-0.60;92.00;;;;;;4963057;29;19957;-92
2022/01/17 01:10:59;;;;;;;;;;;-0.60;91.50;;;;;;4962217;29;19911;-91
2022/01/17 01:13:28;;;;;;;;;;;-0.60;92.00;;;;;;4960920;29;20013;-91
2022/01/17 01:29:05;;;;;;;;;;;-0.80;92.00;;;;;;4962602;29;20438;-91
2022/01/17 01:32:07;;;;;;;;;;;-0.80;92.20;;;;;;4961951;29;19945;-91
2022/01/17 01:34:32;;;;;;;;;;;-0.80;92.40;;;;;;4961429;29;19957;-91
2022/01/17 01:36:58;;;;;;;;;;;-0.80;92.20;;;;;;4961306;29;19911;-91
2022/01/17 01:39:24;;;;;;;;;;;-0.80;92.50;;;;;;4961673;28;19918;-91
2022/01/17 01:41:50;;;;;;;;;;;-0.90;92.30;;;;;;4969967;29;20405;-91
2022/01/17 01:44:18;;;;;;;;;;;-0.90;92.40;;;;;;4969990;29;20428;-91
2022/01/17 01:46:44;;;;;;;;;;;-0.90;92.60;;;;;;4970370;29;19915;-92
2022/01/17 01:49:10;;;;;;;;;;;-0.90;92.40;;;;;;4965332;29;20369;-92
2022/01/17 01:51:36;;;;;;;;;;;-0.90;92.40;;;;;;4960790;28;19961;-92
2022/01/17 01:54:02;;;;;;;;;;;-0.90;92.50;;;;;;4964407;29;20293;-91
2022/01/17 01:56:28;;;;;;;;;;;-0.90;92.50;;;;;;4964945;29;19936;-91
2022/01/17 01:58:54;;;;;;;;;;;-1.00;93.00;;;;;;4965854;29;20378;-92
2022/01/17 02:01:19;;;;;;;;;;;-1.00;92.70;;;;;;4964656;29;19918;-91
2022/01/17 02:03:45;;;;;;;;;;;-1.00;92.80;;;;;;4965823;29;19911;-92
2022/01/17 02:06:11;;;;;;;;;;;-1.00;93.00;;;;;;4964898;29;19957;-91
2022/01/17 02:08:36;;;;;;;;;;;-1.00;93.10;;;;;;4964550;29;19911;-91
2022/01/17 02:11:02;;;;;;;;;;;-1.00;93.10;;;;;;4964604;29;19910;-91
2022/01/17 02:13:27;;;;;;;;;;;-1.10;93.20;;;;;;4964576;29;19918;-92
2022/01/17 02:16:00;;;;;;;;;;;-1.00;93.50;;;;;;4965249;29;19926;-91
2022/01/17 02:18:30;;;;;;;;;;;-1.10;93.60;;;;;;4965683;29;19978;-92
2022/01/17 02:23:41;;;;;;;;;;;-1.10;93.50;;;;;;4965578;29;19917;-91
2022/01/17 02:26:07;;;;;;;;;;;-1.10;93.60;;;;;;4964046;29;19969;-91
2022/01/17 02:28:36;;;;;;;;;;;-1.10;93.50;;;;;;4963261;29;19910;-92
2022/01/17 02:31:06;;;;;;;;;;;-1.10;93.60;;;;;;4964801;29;19910;-91
2022/01/17 02:33:32;;;;;;;;;;;-1.10;93.70;;;;;;4964020;29;20048;-91
2022/01/17 02:35:58;;;;;;;;;;;-1.10;93.90;;;;;;4963460;29;19919;-91
2022/01/17 02:38:23;;;;;;;;;;;-1.10;93.90;;;;;;4963574;29;20005;-91
2022/01/17 02:40:50;;;;;;;;;;;-1.10;93.80;;;;;;4964531;28;19918;-91
2022/01/17 02:43:17;;;;;;;;;;;-1.10;93.70;;;;;;4963059;29;19911;-91
2022/01/17 02:48:21;;;;;;;;;;;-1.10;93.70;;;;;;4965353;29;19958;-92
2022/01/17 02:50:47;;;;;;;;;;;-1.00;93.80;;;;;;4963488;29;19911;-91
2022/01/17 02:53:13;;;;;;;;;;;-1.00;93.90;;;;;;4963745;29;19910;-91
2022/01/17 02:55:40;;;;;;;;;;;-1.00;93.90;;;;;;4961854;29;19990;-92
2022/01/17 02:58:06;;;;;;;;;;;-1.00;93.80;;;;;;4962258;29;19911;-92
2022/01/17 03:00:32;;;;;;;;;;;-1.00;93.80;;;;;;4963519;29;20008;-91
2022/01/17 03:02:57;;;;;;;;;;;-1.00;93.80;;;;;;4962195;28;20306;-92
2022/01/17 03:05:23;;;;;;;;;;;-0.90;94.20;;;;;;4961407;29;19982;-91
2022/01/17 03:07:49;;;;;;;;;;;-0.90;94.10;;;;;;4962916;29;19911;-91
2022/01/17 03:10:31;;;;;;;;;;;-0.90;93.90;;;;;;4963149;29;19910;-92
2022/01/17 03:13:03;;;;;;;;;;;-0.90;94.00;;;;;;4963264;29;20376;-92
2022/01/17 03:15:29;;;;;;;;;;;-0.90;93.90;;;;;;4963425;29;19929;-92
2022/01/17 03:17:55;;;;;;;;;;;-0.90;93.90;;;;;;4962919;29;19915;-91
2022/01/17 03:20:20;;;;;;;;;;;-0.80;93.90;;;;;;4963469;29;20396;-92
2022/01/17 03:22:46;;;;;;;;;;;-0.80;93.90;;;;;;4963071;29;19911;-92
2022/01/17 03:25:12;;;;;;;;;;;-0.80;93.90;;;;;;4962316;29;20414;-92
2022/01/17 03:27:37;;;;;;;;;;;-0.70;93.90;;;;;;4963513;29;19910;-91
2022/01/17 03:30:04;;;;;;;;;;;-0.70;93.70;;;;;;4962473;29;20329;-91
2022/01/17 03:32:29;;;;;;;;;;;-0.70;93.70;;;;;;4963115;29;19957;-91
2022/01/17 03:34:55;;;;;;;;;;;-0.60;93.60;;;;;;4963239;29;19919;-92
2022/01/17 03:37:21;;;;;;;;;;;-0.60;93.50;;;;;;4963533;29;20005;-92
2022/01/17 03:39:47;;;;;;;;;;;-0.50;93.50;;;;;;4961415;28;19996;-92
2022/01/17 03:42:12;;;;;;;;;;;-0.50;93.30;;;;;;4963201;29;19911;-92
2022/01/17 03:44:38;;;;;;;;;;;-0.40;93.20;;;;;;4962408;29;19910;-91
2022/01/17 03:47:04;;;;;;;;;;;-0.40;93.10;;;;;;4961803;29;19918;-91
2022/01/17 03:49:29;;;;;;;;;;;-0.30;92.90;;;;;;4961890;29;19915;-91
2022/01/17 03:51:55;;;;;;;;;;;-0.30;92.90;;;;;;4962565;29;19910;-92
2022/01/17 03:54:20;;;;;;;;;;;-0.30;92.70;;;;;;4961770;29;19950;-92
2022/01/17 03:56:46;;;;;;;;;;;-0.20;92.60;;;;;;4961945;29;19910;-92
2022/01/17 03:59:12;;;;;;;;;;;-0.20;92.50;;;;;;4960783;29;19911;-91
2022/01/17 04:01:37;;;;;;;;;;;-0.20;92.40;;;;;;4962517;29;19910;-91
2022/01/17 04:04:03;;;;;;;;;;;-0.10;92.40;;;;;;4962109;29;19919;-92
2022/01/17 04:06:29;;;;;;;;;;;-0.10;92.50;;;;;;4960303;29;19966;-92
2022/01/17 04:08:54;;;;;;;;;;;-0.10;92.10;;;;;;4961026;29;20447;-92
2022/01/17 04:11:20;;;;;;;;;;;0.00;92.00;;;;;;4960227;29;20322;-91
2022/01/17 04:13:46;;;;;;;;;;;0.00;92.00;;;;;;4963536;29;19910;-92
2022/01/17 04:16:12;;;;;;;;;;;0.00;91.90;;;;;;4960730;28;19978;-91
2022/01/17 04:18:38;;;;;;;;;;;0.00;91.60;;;;;;4962058;29;19993;-91
2022/01/17 04:21:04;;;;;;;;;;;0.00;91.80;;;;;;4959780;29;19922;-92
2022/01/17 04:23:30;;;;;;;;;;;0.00;91.50;;;;;;4961771;29;19918;-92
2022/01/17 04:25:55;;;;;;;;;;;0.00;91.70;;;;;;4960269;29;19917;-92
2022/01/17 04:28:21;;;;;;;;;;;0.10;91.60;;;;;;4961314;29;19918;-91
2022/01/17 04:30:46;;;;;;;;;;;0.10;91.50;;;;;;4961242;29;19910;-91
2022/01/17 04:33:12;;;;;;;;;;;0.10;91.40;;;;;;4961488;29;19953;-91
2022/01/17 04:35:38;;;;;;;;;;;0.20;91.40;;;;;;4962888;29;19919;-92
2022/01/17 04:38:05;;;;;;;;;;;0.20;91.20;;;;;;4963728;29;19915;-91
2022/01/17 04:40:35;;;;;;;;;;;0.30;91.00;;;;;;4962504;28;19911;-91
2022/01/17 04:43:04;;;;;;;;;;;0.40;91.00;;;;;;4959843;29;19997;-92
2022/01/17 04:45:30;;;;;;;;;;;0.40;90.50;;;;;;4959916;29;19956;-91
2022/01/17 04:47:56;;;;;;;;;;;0.40;90.30;;;;;;4958935;29;19911;-91
2022/01/17 04:50:23;;;;;;;;;;;0.50;90.40;;;;;;4959554;29;19918;-91
2022/01/17 04:52:49;;;;;;;;;;;0.50;90.20;;;;;;4959185;29;19915;-91
2022/01/17 04:55:16;;;;;;;;;;;0.60;90.20;;;;;;4958468;29;19922;-92
2022/01/17 04:57:43;;;;;;;;;;;0.70;90.00;;;;;;4959947;29;19977;-92
2022/01/17 05:00:10;;;;;;;;;;;0.70;89.50;;;;;;4959996;29;20362;-91
2022/01/17 05:02:36;;;;;;;;;;;0.70;89.10;;;;;;4960630;29;19973;-92
2022/01/17 05:05:03;;;;;;;;;;;0.80;89.60;;;;;;4960613;29;19910;-91
2022/01/17 05:07:28;;;;;;;;;;;0.80;88.60;;;;;;4957864;29;20001;-92
2022/01/17 05:09:54;;;;;;;;;;;0.80;88.40;;;;;;4959680;29;19950;-91
2022/01/17 05:12:19;;;;;;;;;;;0.80;88.10;;;;;;4959989;29;20013;-90
2022/01/17 05:14:49;;;;;;;;;;;0.90;87.70;;;;;;4960303;29;19918;-91
2022/01/17 05:17:35;;;;;;;;;;;0.80;87.40;;;;;;4961614;29;19922;-91
2022/01/17 05:20:01;;;;;;;;;;;0.80;87.50;;;;;;4962186;29;19914;-91
2022/01/17 05:22:31;;;;;;;;;;;0.80;87.70;;;;;;4963099;29;19934;-91
2022/01/17 05:24:57;;;;;;;;;;;0.80;87.40;;;;;;4961706;29;19911;-91
2022/01/17 05:27:22;;;;;;;;;;;0.80;87.60;;;;;;4961467;28;19943;-91
2022/01/17 05:29:48;;;;;;;;;;;0.80;87.40;;;;;;4962720;29;19910;-92
2022/01/17 05:32:14;;;;;;;;;;;0.80;87.20;;;;;;4961756;29;19919;-91
2022/01/17 05:34:42;;;;;;;;;;;0.80;87.10;;;;;;4960641;29;19922;-91
2022/01/17 05:37:09;;;;;;;;;;;0.80;87.20;;;;;;4961284;29;19910;-91
2022/01/17 05:39:35;;;;;;;;;;;0.70;87.20;;;;;;4961077;28;19914;-91
2022/01/17 05:42:01;;;;;;;;;;;0.70;87.60;;;;;;4961907;29;19911;-92
2022/01/17 05:44:27;;;;;;;;;;;0.70;87.30;;;;;;4961728;29;19911;-91
2022/01/17 05:46:52;;;;;;;;;;;0.70;87.40;;;;;;4962316;29;20326;-91
2022/01/17 05:49:18;;;;;;;;;;;0.70;86.80;;;;;;4963938;29;19918;-91
2022/01/17 05:51:43;;;;;;;;;;;0.70;86.80;;;;;;4962769;29;19914;-91
2022/01/17 05:54:09;;;;;;;;;;;0.70;87.00;;;;;;4964634;29;19922;-91
2022/01/17 05:56:35;;;;;;;;;;;0.70;87.00;;;;;;4962760;29;20009;-91
2022/01/17 05:59:01;;;;;;;;;;;0.70;87.10;;;;;;4963098;29;19911;-92
2022/01/17 06:01:27;;;;;;;;;;;0.80;87.00;;;;;;4962573;29;20013;-91
2022/01/17 06:03:54;;;;;;;;;;;0.80;86.10;;;;;;4961365;29;20044;-91
2022/01/17 06:06:25;;;;;;;;;;;0.80;86.00;;;;;;4962760;29;19918;-91
2022/01/17 06:08:51;;;;;;;;;;;0.80;84.70;;;;;;4960741;29;19917;-90
2022/01/17 06:11:17;;;;;;;;;;;0.80;83.40;;;;;;4960268;29;19911;-91
2022/01/17 06:13:44;;;;;;;;;;;0.80;84.10;;;;;;4960967;29;19957;-91
2022/01/17 06:16:12;;;;;;;;;;;0.90;82.60;;;;;;4960211;29;19923;-91
2022/01/17 06:18:37;;;;;;;;;;;0.90;83.60;;;;;;4958314;29;19921;-91
2022/01/17 06:21:06;;;;;;;;;;;0.90;82.50;;;;;;4960642;29;19915;-91
2022/01/17 06:23:31;;;;;;;;;;;0.90;82.20;;;;;;4961231;29;19957;-91
2022/01/17 06:26:00;;;;;;;;;;;1.00;82.40;;;;;;4960692;29;20010;-91
2022/01/17 06:28:25;;;;;;;;;;;1.00;81.50;;;;;;4960933;29;19914;-91
2022/01/17 06:30:51;;;;;;;;;;;1.00;80.80;;;;;;4962495;29;19986;-91
2022/01/17 06:33:17;;;;;;;;;;;1.00;80.90;;;;;;4961594;29;19942;-91
2022/01/17 06:35:42;;;;;;;;;;;1.10;81.80;;;;;;4961894;29;19938;-91
2022/01/17 06:38:15;;;;;;;;;;;1.10;81.20;;;;;;4967797;28;19914;-92
2022/01/17 06:40:41;;;;;;;;;;;1.10;81.90;;;;;;4976777;28;19919;-91
2022/01/17 06:43:25;;;;;;;;;;;;;;;;;;;;;
2022/01/17 06:45:51;;;;;;;;;;;1.20;80.90;;;;;;4969073;29;20013;-90
2022/01/17 06:48:17;;;;;;;;;;;1.20;81.50;;;;;;4965648;29;19942;-90
2022/01/17 06:50:42;;;;;;;;;;;1.20;80.20;;;;;;4965959;29;20362;-90
2022/01/17 06:53:08;;;;;;;;;;;1.30;80.30;;;;;;4965397;29;19910;-90
2022/01/17 06:55:36;;;;;;;;;;;1.20;80.20;;;;;;4964968;29;20353;-90
2022/01/17 06:58:05;;;;;;;;;;;1.30;79.80;;;;;;4963762;29;19910;-92
2022/01/17 07:00:31;;;;;;;;;;;1.30;80.30;;;;;;4964671;29;19918;-90
2022/01/17 07:02:56;;;;;;;;;;;1.30;79.40;;;;;;4964482;29;20226;-91
2022/01/17 07:05:22;;;;;;;;;;;1.30;79.30;;;;;;4962305;29;19910;-91
2022/01/17 07:07:48;;;;;;;;;;;1.30;79.80;;;;;;4964652;29;19911;-91
2022/01/17 07:10:16;;;;;;;;;;;1.30;80.00;;;;;;4963477;29;19910;-91
2022/01/17 07:12:41;;;;;;;;;;;1.40;79.90;;;;;;4963854;29;19911;-90
2022/01/17 07:15:08;;;;;;;;;;;1.40;79.60;;;;;;4964485;29;19918;-91
2022/01/17 07:17:34;;;;;;;;;;;1.40;79.30;;;;;;4962709;29;19933;-91
2022/01/17 07:20:03;;;;;;;;;;;1.40;79.60;;;;;;4964124;29;19921;-92
2022/01/17 07:22:29;;;;;;;;;;;1.40;79.90;;;;;;4964047;28;19914;-91
2022/01/17 07:24:57;;;;;;;;;;;1.40;79.10;;;;;;4981246;28;19926;-91
2022/01/17 07:27:44;;;;;;;;;;;1.50;79.80;;;;;;4980868;28;19916;-91
2022/01/17 07:31:00;;;;;;;;;;;;;;;;;;;;;
2022/01/17 07:41:52;;;;;;;;;;;1.50;79.70;;;;;;4987321;28;19988;-91
2022/01/17 07:44:42;;;;;;;;;;;1.60;79.40;;;;;;4986279;28;19956;-92
2022/01/17 07:50:46;;;;;;;;;;;;;;;;;;;;;
2022/01/17 07:53:23;;;;;;;;;;;1.80;79.60;;;;;;4983949;28;19953;-90
2022/01/17 07:56:00;;;;;;;;;;;1.80;78.70;;;;;;4985771;28;19922;-90
2022/01/17 07:58:30;;;;;;;;;;;1.90;79.00;;;;;;4982239;28;19938;-92
2022/01/17 08:01:00;;;;;;;;;;;1.90;77.50;;;;;;4981449;28;19937;-91
2022/01/17 08:03:40;;;;;;;;;;;;;;;;;;;;;
2022/01/17 08:06:28;;;;;;;;;;;2.00;79.00;;;;;;4985892;28;19979;-92
2022/01/17 08:09:02;;;;;;;;;;;2.10;78.40;;;;;;4974011;28;19914;-92
2022/01/17 08:11:30;;;;;;;;;;;2.20;78.20;;;;;;4984378;28;20299;-91
2022/01/17 08:13:58;;;;;;;;;;;2.20;77.90;;;;;;4960370;28;19954;-92
2022/01/17 08:16:30;;;;;;;;;;;2.30;77.00;;;;;;4974480;28;19926;-91
2022/01/17 08:19:19;;;;;;;;;;;2.30;77.20;;;;;;4972203;28;20164;-91
2022/01/17 08:21:47;;;;;;;;;;;2.30;77.30;;;;;;4989659;28;19974;-90
2022/01/17 08:24:21;;;;;;;;;;;2.30;77.00;;;;;;4976101;28;19925;-92
2022/01/17 08:27:26;;;;;;;;;;;2.30;77.70;;;;;;4969217;28;19924;-92
2022/01/17 08:30:01;;;;;;;;;;;2.30;78.20;;;;;;4974510;28;19910;-91
2022/01/17 08:32:36;;;;;;;;;;;2.30;78.70;;;;;;4974338;28;20396;-91
2022/01/17 08:35:02;;;;;;;;;;;2.30;79.00;;;;;;4970650;28;19918;-90
2022/01/17 08:37:30;;;;;;;;;;;2.40;79.60;;;;;;4983305;28;20337;-91
2022/01/17 08:39:59;;;;;;;;;;;2.40;79.90;;;;;;4982647;28;19910;-92
2022/01/17 08:45:53;;;;;;;;;;;2.50;80.60;;;;;;4981598;28;19965;-92
2022/01/17 08:48:21;;;;;;;;;;;2.50;80.90;;;;;;4980559;28;19914;-92
2022/01/17 08:50:55;;;;;;;;;;;2.60;80.20;;;;;;4977191;28;19957;-91
2022/01/17 08:53:40;;;;;;;;;;;;;;;;;;;;;
2022/01/17 08:59:24;;;;;;;;;;;2.70;80.00;;;;;;4938973;29;19918;-91
2022/01/17 09:02:16;;;;;;;;;;;2.70;80.20;;;;;;4939155;29;20006;-93
2022/01/17 09:04:45;;;;;;;;;;;2.80;79.60;;;;;;4978091;28;20029;-92
2022/01/17 09:07:16;;;;;;;;;;;2.80;79.80;;;;;;4985276;28;19914;-90
2022/01/17 09:09:47;;;;;;;;;;;2.80;78.90;;;;;;4985822;28;19910;-91
2022/01/17 09:12:12;;;;;;;;;;;2.80;79.60;;;;;;4982516;28;19933;-91
2022/01/17 09:14:57;;;;;;;;;;;2.80;79.00;;;;;;4981552;28;19918;-90
2022/01/17 09:17:22;;;;;;;;;;;2.80;79.20;;;;;;4976819;28;19910;-90
2022/01/17 09:19:50;;;;;;;;;;;2.90;78.20;;;;;;4979450;28;19997;-91
2022/01/17 09:22:18;;;;;;;;;;;2.90;78.30;;;;;;4961455;28;19914;-91
2022/01/17 09:24:45;;;;;;;;;;;2.90;78.30;;;;;;4978137;28;19921;-91
2022/01/17 09:27:12;;;;;;;;;;;3.00;78.00;;;;;;4977789;28;19914;-90
2022/01/17 09:29:41;;;;;;;;;;;3.00;78.20;;;;;;4975451;28;19916;-91
2022/01/17 09:32:08;;;;;;;;;;;3.10;78.40;;;;;;4974575;28;19921;-91
2022/01/17 09:34:33;;;;;;;;;;;3.10;78.50;;;;;;4976214;28;20284;-91
2022/01/17 09:37:00;;;;;;;;;;;3.20;77.60;;;;;;4960158;28;19985;-90
2022/01/17 09:39:28;;;;;;;;;;;3.30;78.00;;;;;;4959749;28;19937;-90
2022/01/17 09:41:55;;;;;;;;;;;3.30;77.10;;;;;;4966040;28;19914;-90
2022/01/17 09:44:23;;;;;;;;;;;3.40;76.90;;;;;;4974568;28;19925;-91
2022/01/17 09:46:52;;;;;;;;;;;3.40;76.40;;;;;;4971712;28;19914;-92
2022/01/17 09:49:24;;;;;;;;;;;3.40;76.40;;;;;;4969678;28;19972;-91
2022/01/17 09:54:31;;;;;;;;;;;3.40;77.20;;;;;;4977504;28;19926;-92
2022/01/17 09:56:59;;;;;;;;;;;3.40;77.20;;;;;;4974638;28;20067;-94
2022/01/17 09:59:26;;;;;;;;;;;3.40;77.00;;;;;;4976169;28;19917;-94
2022/01/17 10:02:03;;;;;;;;;;;3.50;77.60;;;;;;4959397;29;20346;-91
2022/01/17 10:52:02;;;;;;;;;;;;;;;;;;;;;
2022/01/17 11:04:10;;;;;;;;;;;4.10;77.90;;;;;;4825955;29;19925;-90
2022/01/17 11:06:45;;;;;;;;;;;4.10;77.90;;;;;;4827948;29;19917;-91
2022/01/17 11:09:13;;;;;;;;;;;4.10;78.30;;;;;;4905811;28;19943;-91
2022/01/17 11:12:01;;;;;;;;;;;4.10;78.40;;;;;;4978392;28;19997;-92
2022/01/17 11:15:10;;;;;;;;;;;4.00;78.70;;;;;;4961288;28;19930;-91
2022/01/17 11:17:48;;;;;;;;;;;;;;;;;;;;;
2022/01/17 11:20:39;;;;;;;;;;;4.00;79.30;;;;;;4968816;28;19918;-91
2022/01/17 11:23:08;;;;;;;;;;;4.00;79.50;;;;;;4976766;28;19957;-91
2022/01/17 11:25:51;;;;;;;;;;;;;;;;;;;;;
2022/01/17 11:28:47;;;;;;;;;;;3.90;80.50;;;;;;4966571;28;19921;-90
2022/01/17 11:31:24;;;;;;;;;;;3.80;81.50;;;;;;4973946;28;19914;-92
2022/01/17 11:33:50;;;;;;;;;;;3.80;81.40;;;;;;4977736;28;19921;-90
2022/01/17 11:36:16;;;;;;;;;;;3.80;81.90;;;;;;4966764;28;20009;-90
2022/01/17 11:38:47;;;;;;;;;;;3.80;82.00;;;;;;4971779;28;20009;-89
2022/01/17 11:41:27;;;;;;;;;;;3.90;82.10;;;;;;4974631;28;19914;-89
2022/01/17 11:44:04;;;;;;;;;;;3.90;82.30;;;;;;4954199;28;19921;-89
2022/01/17 11:46:53;;;;;;;;;;;3.90;82.10;;;;;;4969365;28;19989;-89
2022/01/17 11:49:31;;;;;;;;;;;3.90;82.30;;;;;;4959874;28;19918;-89
2022/01/17 11:52:20;;;;;;;;;;;4.00;82.40;;;;;;4972573;28;19921;-90
2022/01/17 11:55:06;;;;;;;;;;;4.00;82.70;;;;;;4976764;28;20006;-87
2022/01/17 11:57:33;;;;;;;;;;;4.00;83.20;;;;;;4974183;28;20420;-89
2022/01/17 12:00:05;;;;;;;;;;;4.00;83.20;;;;;;4958902;28;19921;-90
2022/01/17 12:02:40;;;;;;;;;;;4.00;83.10;;;;;;4974891;28;19910;-89
2022/01/17 12:05:15;;;;;;;;;;;4.00;83.40;;;;;;4973153;28;19922;-94
2022/01/17 12:08:01;;;;;;;;;;;4.00;83.40;;;;;;4978287;28;19915;-90
2022/01/17 12:10:28;;;;;;;;;;;4.00;83.40;;;;;;4966889;28;19958;-90
2022/01/17 12:15:58;;;;;;;;;;;4.10;83.70;;;;;;4975489;28;20391;-88
2022/01/17 12:18:31;;;;;;;;;;;4.00;84.10;;;;;;4965872;28;19924;-89
2022/01/17 12:20:57;;;;;;;;;;;4.10;84.00;;;;;;4974588;28;19918;-90
2022/01/17 12:23:32;;;;;;;;;;;4.10;83.80;;;;;;4973446;28;19914;-92
2022/01/17 12:26:18;;;;;;;;;;;4.10;83.90;;;;;;4974387;28;19914;-91
2022/01/17 12:28:51;;;;;;;;;;;4.10;84.20;;;;;;4971854;28;19925;-91
2022/01/17 12:31:41;;;;;;;;;;;4.10;84.60;;;;;;4971616;28;20329;-89
2022/01/17 12:34:24;;;;;;;;;;;4.10;84.70;;;;;;4973655;28;19920;-91
2022/01/17 12:36:58;;;;;;;;;;;4.10;84.90;;;;;;4974044;28;19969;-90
2022/01/17 12:39:25;;;;;;;;;;;4.20;85.40;;;;;;4973358;28;19924;-88
2022/01/17 12:42:02;;;;;;;;;;;4.20;85.00;;;;;;4974079;28;20349;-90
2022/01/17 12:44:29;;;;;;;;;;;4.10;85.10;;;;;;4973684;28;19923;-89
2022/01/17 12:47:15;;;;;;;;;;;4.10;85.50;;;;;;4975346;28;19957;-89
2022/01/17 12:49:49;;;;;;;;;;;4.10;85.50;;;;;;4976371;28;19910;-89
2022/01/17 12:52:16;;;;;;;;;;;4.10;86.60;;;;;;4970740;28;20258;-90
2022/01/17 12:54:45;;;;;;;;;;;4.10;86.20;;;;;;4983492;28;19922;-90
2022/01/17 12:57:11;;;;;;;;;;;4.00;86.40;;;;;;4977580;28;19913;-88
2022/01/17 12:59:36;;;;;;;;;;;4.00;87.20;;;;;;4975073;28;20273;-89
2022/01/17 13:02:02;;;;;;;;;;;4.00;86.90;;;;;;4976993;28;20003;-89
2022/01/17 13:04:31;;;;;;;;;;;4.00;87.00;;;;;;4989127;28;19996;-91
2022/01/17 13:06:58;;;;;;;;;;;4.10;86.80;;;;;;4974698;28;19949;-90
2022/01/17 13:09:26;;;;;;;;;;;4.10;87.20;;;;;;4968398;28;19914;-89
2022/01/17 13:11:53;;;;;;;;;;;4.10;87.00;;;;;;4978151;28;19924;-90
2022/01/17 13:14:24;;;;;;;;;;;4.00;87.30;;;;;;4977629;28;19909;-90
2022/01/17 13:16:51;;;;;;;;;;;4.00;88.30;;;;;;4987351;28;20273;-90
2022/01/17 13:19:19;;;;;;;;;;;4.00;88.00;;;;;;4986549;28;19910;-90
2022/01/17 13:21:46;;;;;;;;;;;4.00;88.30;;;;;;4977060;28;19968;-90
2022/01/17 13:27:01;;;;;;;;;;;4.00;88.80;;;;;;4985006;28;19934;-89
2022/01/17 13:29:30;;;;;;;;;;;4.00;88.70;;;;;;4960292;28;19985;-90
2022/01/17 13:32:01;;;;;;;;;;;4.00;89.00;;;;;;4979560;28;19922;-90
2022/01/17 13:34:30;;;;;;;;;;;4.10;89.00;;;;;;4963015;28;19917;-90
2022/01/17 13:37:11;;;;;;;;;;;4.10;89.00;;;;;;4970280;28;19918;-91
2022/01/17 13:39:37;;;;;;;;;;;4.10;89.00;;;;;;4980624;28;19909;-88
2022/01/17 13:42:04;;;;;;;;;;;4.00;89.30;;;;;;4994042;28;20269;-89
2022/01/17 13:44:38;;;;;;;;;;;4.00;89.00;;;;;;4977814;28;19921;-87
2022/01/17 13:47:09;;;;;;;;;;;4.00;89.50;;;;;;4964981;28;19910;-87
2022/01/17 13:49:45;;;;;;;;;;;4.00;89.90;;;;;;4972445;28;19913;-88
2022/01/17 13:52:12;;;;;;;;;;;3.90;90.20;;;;;;4985742;28;19925;-89
2022/01/17 13:54:48;;;;;;;;;;;3.90;90.00;;;;;;5001965;28;19950;-88
2022/01/17 13:57:15;;;;;;;;;;;3.90;90.10;;;;;;4979468;28;19949;-91
2022/01/17 14:00:05;;;;;;;;;;;3.90;90.10;;;;;;4974444;28;19944;-89
2022/01/17 14:02:39;;;;;;;;;;;3.80;90.70;;;;;;4973863;28;19914;-89
2022/01/17 14:05:06;;;;;;;;;;;3.80;90.50;;;;;;4974611;28;19926;-89
2022/01/17 14:07:32;;;;;;;;;;;3.80;90.30;;;;;;4969535;28;19953;-89
2022/01/17 14:09:59;;;;;;;;;;;3.80;90.70;;;;;;4976190;28;19914;-89
2022/01/17 14:12:28;;;;;;;;;;;3.80;90.50;;;;;;4959595;28;19926;-91
2022/01/17 14:14:56;;;;;;;;;;;3.80;90.70;;;;;;4965060;28;19926;-89
2022/01/17 14:17:23;;;;;;;;;;;3.80;90.90;;;;;;4967793;28;20367;-89
2022/01/17 14:19:53;;;;;;;;;;;3.80;91.00;;;;;;4978663;28;20005;-89
2022/01/17 14:22:27;;;;;;;;;;;3.80;90.90;;;;;;4976193;28;19921;-89
2022/01/17 14:24:56;;;;;;;;;;;3.80;90.90;;;;;;4977713;28;19918;-90
2022/01/17 14:27:23;;;;;;;;;;;3.80;91.10;;;;;;4980310;28;19956;-90
2022/01/17 14:29:50;;;;;;;;;;;3.80;91.30;;;;;;4976685;28;19914;-90
2022/01/17 14:32:18;;;;;;;;;;;3.70;91.20;;;;;;4977854;28;19918;-90
2022/01/17 14:34:50;;;;;;;;;;;3.70;91.20;;;;;;4978717;28;19914;-91
2022/01/17 14:37:23;;;;;;;;;;;3.70;91.70;;;;;;4993200;28;19989;-90
2022/01/17 14:40:01;;;;;;;;;;;3.70;91.50;;;;;;4993819;28;19910;-90
2022/01/17 14:42:40;;;;;;;;;;;3.70;91.60;;;;;;4993298;28;19910;-90
2022/01/17 14:45:09;;;;;;;;;;;3.70;91.70;;;;;;4993234;28;19993;-89
2022/01/17 14:47:37;;;;;;;;;;;3.70;91.80;;;;;;4993329;28;19959;-89
2022/01/17 14:50:04;;;;;;;;;;;3.70;92.00;;;;;;4976873;28;19914;-89
2022/01/17 14:52:31;;;;;;;;;;;3.70;92.00;;;;;;4976794;28;19914;-88
2022/01/17 15:03:11;;;;;;;;;;;3.70;92.10;;;;;;4977040;28;19914;-89
2022/01/17 15:05:39;;;;;;;;;;;3.80;92.10;;;;;;4963582;28;19918;-89
2022/01/17 15:08:06;;;;;;;;;;;3.80;92.30;;;;;;4961530;28;20358;-89
2022/01/17 15:10:33;;;;;;;;;;;3.80;93.10;;;;;;4978495;28;19910;-90
2022/01/17 15:13:00;;;;;;;;;;;3.70;93.00;;;;;;4978546;28;20342;-90
2022/01/17 15:15:28;;;;;;;;;;;3.70;93.50;;;;;;4977390;28;20008;-91
2022/01/17 15:17:55;;;;;;;;;;;3.70;94.50;;;;;;4975980;28;19965;-90
2022/01/17 15:20:21;;;;;;;;;;;3.60;94.50;;;;;;4975315;28;19911;-90
2022/01/17 15:22:47;;;;;;;;;;;3.50;95.30;;;;;;4973024;28;19910;-92
2022/01/17 15:25:13;;;;;;;;;;;3.40;95.90;;;;;;4976989;28;19922;-89
2022/01/17 15:27:40;;;;;;;;;;;3.30;96.20;;;;;;4970171;28;19933;-89
2022/01/17 15:30:08;;;;;;;;;;;3.30;96.50;;;;;;4976466;28;20281;-91
2022/01/17 15:32:35;;;;;;;;;;;3.30;96.60;;;;;;4975735;28;19929;-90
2022/01/17 15:35:03;;;;;;;;;;;3.20;96.90;;;;;;4977496;28;20017;-90
2022/01/17 15:37:31;;;;;;;;;;;3.20;97.20;;;;;;4976326;28;19910;-90
2022/01/17 15:39:57;;;;;;;;;;;3.10;97.80;;;;;;4959273;28;20391;-90
2022/01/17 15:42:25;;;;;;;;;;;3.10;98.40;;;;;;4976318;28;20317;-91
2022/01/17 15:44:51;;;;;;;;;;;3.10;98.30;;;;;;4975374;28;19910;-90
2022/01/17 15:47:26;;;;;;;;;;;3.00;98.40;;;;;;4977308;28;19910;-91
2022/01/17 15:49:53;;;;;;;;;;;3.00;98.70;;;;;;4961198;28;20004;-89
2022/01/17 15:52:19;;;;;;;;;;;3.00;99.00;;;;;;4957132;28;20385;-90
2022/01/17 15:54:50;;;;;;;;;;;2.90;98.70;;;;;;4958232;29;20374;-90
2022/01/17 15:57:24;;;;;;;;;;;2.90;99.10;;;;;;4958505;29;19917;-90
2022/01/17 15:59:51;;;;;;;;;;;2.90;99.80;;;;;;4973145;28;19911;-89
2022/01/17 16:02:24;;;;;;;;;;;2.80;99.50;;;;;;4964624;28;19918;-88
2022/01/17 16:04:50;;;;;;;;;;;2.80;99.80;;;;;;4976970;28;20030;-89
2022/01/17 16:07:16;;;;;;;;;;;2.80;99.90;;;;;;4970539;28;19921;-89
2022/01/17 16:09:42;;;;;;;;;;;2.80;99.90;;;;;;4958373;28;19933;-90
2022/01/17 16:12:13;;;;;;;;;;;2.80;99.90;;;;;;4977332;28;19925;-90
2022/01/17 16:14:41;;;;;;;;;;;2.80;99.90;;;;;;4959496;28;20104;-90
2022/01/17 16:17:08;;;;;;;;;;;2.80;99.90;;;;;;4968256;28;19944;-89
2022/01/17 16:19:35;;;;;;;;;;;2.80;99.90;;;;;;4966037;28;19925;-89
2022/01/17 16:22:02;;;;;;;;;;;2.80;99.90;;;;;;4971850;28;19914;-89
2022/01/17 16:24:32;;;;;;;;;;;2.70;99.90;;;;;;4973141;28;19918;-89
2022/01/17 16:26:59;;;;;;;;;;;2.70;99.90;;;;;;4975482;28;20243;-90
2022/01/17 16:29:27;;;;;;;;;;;2.70;99.90;;;;;;4957311;28;19918;-90
2022/01/17 16:31:54;;;;;;;;;;;2.70;99.90;;;;;;4967191;28;20013;-90
2022/01/17 16:34:23;;;;;;;;;;;2.70;99.90;;;;;;4970201;28;19914;-89
2022/01/17 16:36:52;;;;;;;;;;;2.70;99.90;;;;;;4974247;28;19910;-90